createdAt,value
2018-07-08T00:00:29.269Z,17.00
2018-07-08T00:02:57.449Z,16.80
2018-07-08T00:05:25.797Z,16.90
2018-07-08T00:07:54.634Z,17.00
2018-07-08T00:10:23.156Z,16.90
2018-07-08T00:12:51.380Z,16.80
2018-07-08T00:15:19.601Z,16.80
2018-07-08T00:17:47.960Z,16.90
2018-07-08T00:20:16.186Z,16.80
2018-07-08T00:22:44.454Z,16.80
2018-07-08T00:25:12.701Z,16.70
2018-07-08T00:27:40.997Z,16.70
2018-07-08T00:30:09.204Z,16.70
2018-07-08T00:32:37.416Z,16.60
2018-07-08T00:35:05.709Z,16.60
2018-07-08T00:37:33.936Z,16.60
2018-07-08T00:40:02.147Z,16.60
2018-07-08T00:42:30.392Z,16.60
2018-07-08T00:44:58.576Z,16.60
2018-07-08T00:49:54.745Z,16.60
2018-07-08T00:52:22.956Z,16.60
2018-07-08T00:54:51.152Z,16.50
2018-07-08T00:57:19.344Z,16.40
2018-07-08T00:59:47.569Z,16.40
2018-07-08T01:02:15.733Z,16.30
2018-07-08T01:04:43.969Z,16.30
2018-07-08T01:07:12.184Z,16.30
2018-07-08T01:09:40.401Z,16.40
2018-07-08T01:12:15.485Z,16.40
2018-07-08T01:14:43.648Z,16.40
2018-07-08T01:17:11.857Z,16.40
2018-07-08T01:19:40.204Z,16.30
2018-07-08T01:22:08.396Z,16.40
2018-07-08T01:24:36.652Z,16.40
2018-07-08T01:27:04.909Z,16.40
2018-07-08T01:29:33.119Z,16.40
2018-07-08T01:32:01.375Z,16.40
2018-07-08T01:34:29.536Z,16.40
2018-07-08T01:36:57.752Z,16.40
2018-07-08T01:39:25.993Z,16.40
2018-07-08T01:41:54.248Z,16.40
2018-07-08T01:44:22.415Z,16.40
2018-07-08T01:46:50.745Z,16.50
2018-07-08T01:49:19.061Z,16.50
2018-07-08T01:51:47.241Z,16.50
2018-07-08T01:54:15.472Z,16.50
2018-07-08T01:56:43.737Z,16.50
2018-07-08T01:59:12.065Z,16.40
2018-07-08T02:01:40.421Z,16.40
2018-07-08T02:04:08.666Z,16.50
2018-07-08T02:06:36.889Z,16.40
2018-07-08T02:09:05.404Z,16.40
2018-07-08T02:11:33.736Z,16.40
2018-07-08T02:14:02.120Z,16.40
2018-07-08T02:16:30.488Z,16.40
2018-07-08T02:18:58.712Z,16.40
2018-07-08T02:21:27.578Z,16.40
2018-07-08T02:23:55.804Z,16.30
2018-07-08T02:26:24.065Z,16.20
2018-07-08T02:28:52.614Z,16.20
2018-07-08T02:31:20.811Z,16.20
2018-07-08T02:33:49.172Z,16.30
2018-07-08T02:38:45.518Z,16.20
2018-07-08T02:41:13.817Z,16.20
2018-07-08T02:43:42.073Z,16.10
2018-07-08T02:46:10.401Z,16.10
2018-07-08T02:48:38.689Z,16.10
2018-07-08T02:51:06.894Z,16.00
2018-07-08T02:53:35.169Z,16.00
2018-07-08T02:56:03.442Z,16.10
2018-07-08T02:58:31.660Z,16.10
2018-07-08T03:00:59.863Z,16.10
2018-07-08T03:03:28.072Z,16.10
2018-07-08T03:05:56.265Z,16.10
2018-07-08T03:08:24.437Z,16.00
2018-07-08T03:10:52.664Z,15.80
2018-07-08T03:13:20.897Z,15.80
2018-07-08T03:15:49.081Z,15.80
2018-07-08T03:18:17.291Z,15.90
2018-07-08T03:20:45.493Z,15.90
2018-07-08T03:23:13.733Z,15.90
2018-07-08T03:25:41.884Z,15.90
2018-07-08T03:28:10.154Z,16.00
2018-07-08T03:30:38.431Z,16.10
2018-07-08T03:33:06.616Z,16.10
2018-07-08T03:35:34.811Z,16.10
2018-07-08T03:38:02.998Z,16.10
2018-07-08T03:40:31.229Z,16.00
2018-07-08T03:42:59.469Z,15.90
2018-07-08T03:45:27.655Z,15.90
2018-07-08T03:47:55.848Z,15.80
2018-07-08T03:50:24.068Z,15.70
2018-07-08T03:55:20.387Z,15.60
2018-07-08T03:57:48.592Z,15.60
2018-07-08T04:00:16.796Z,15.60
2018-07-08T04:02:45.049Z,15.60
2018-07-08T04:05:13.205Z,15.70
2018-07-08T04:07:41.400Z,15.80
2018-07-08T04:10:09.641Z,15.80
2018-07-08T04:12:37.823Z,15.60
2018-07-08T04:15:06.112Z,15.60
2018-07-08T04:17:34.287Z,15.60
2018-07-08T04:20:02.628Z,15.70
2018-07-08T04:22:30.880Z,15.80
2018-07-08T04:24:59.120Z,15.80
2018-07-08T04:27:27.308Z,15.80
2018-07-08T04:29:55.492Z,15.90
2018-07-08T04:32:23.709Z,15.90
2018-07-08T04:34:51.991Z,15.90
2018-07-08T04:37:20.161Z,15.90
2018-07-08T04:39:48.359Z,15.90
2018-07-08T04:42:16.527Z,15.90
2018-07-08T04:44:44.733Z,16.00
2018-07-08T04:47:12.909Z,16.10
2018-07-08T04:49:41.128Z,16.20
2018-07-08T04:52:09.330Z,16.30
2018-07-08T04:54:37.497Z,16.40
2018-07-08T04:57:05.708Z,16.50
2018-07-08T04:59:33.877Z,16.50
2018-07-08T05:02:02.089Z,16.60
2018-07-08T05:04:30.299Z,16.70
2018-07-08T05:06:58.504Z,16.90
2018-07-08T05:09:26.696Z,16.90
2018-07-08T05:11:54.870Z,17.00
2018-07-08T05:14:23.114Z,17.20
2018-07-08T05:16:51.292Z,17.30
2018-07-08T05:19:19.512Z,17.40
2018-07-08T05:21:47.727Z,17.40
2018-07-08T05:24:15.930Z,17.40
2018-07-08T05:26:47.227Z,17.50
2018-07-08T05:29:15.444Z,17.60
2018-07-08T05:31:43.697Z,17.70
2018-07-08T05:34:11.904Z,17.70
2018-07-08T05:36:40.085Z,17.60
2018-07-08T05:39:08.308Z,17.60
2018-07-08T05:41:36.469Z,17.70
2018-07-08T05:44:04.795Z,17.80
2018-07-08T05:46:33.081Z,18.00
2018-07-08T05:49:01.277Z,18.20
2018-07-08T05:51:29.454Z,18.20
2018-07-08T05:53:57.616Z,18.50
2018-07-08T05:56:25.808Z,18.80
2018-07-08T05:58:54.492Z,19.10
2018-07-08T06:01:22.692Z,19.40
2018-07-08T06:03:51.001Z,19.20
2018-07-08T06:06:19.237Z,19.00
2018-07-08T06:08:47.493Z,18.90
2018-07-08T06:11:15.728Z,19.00
2018-07-08T06:13:43.936Z,18.90
2018-07-08T06:16:12.149Z,18.90
2018-07-08T06:18:40.327Z,19.00
2018-07-08T06:21:08.532Z,19.20
2018-07-08T06:23:36.985Z,19.30
2018-07-08T06:26:05.548Z,19.60
2018-07-08T06:28:33.809Z,19.80
2018-07-08T06:31:01.965Z,20.00
2018-07-08T06:33:30.193Z,20.30
2018-07-08T06:35:58.389Z,20.40
2018-07-08T06:38:26.576Z,20.60
2018-07-08T06:40:54.797Z,20.70
2018-07-08T06:43:23.119Z,20.80
2018-07-08T06:45:51.324Z,21.00
2018-07-08T06:48:19.553Z,20.70
2018-07-08T06:50:47.775Z,20.70
2018-07-08T06:53:15.980Z,20.80
2018-07-08T06:55:44.196Z,21.00
2018-07-08T06:58:12.400Z,21.20
2018-07-08T07:00:40.584Z,21.50
2018-07-08T07:03:08.909Z,21.60
2018-07-08T07:08:05.447Z,22.00
2018-07-08T07:10:33.670Z,22.20
2018-07-08T07:13:01.845Z,22.30
2018-07-08T07:15:30.053Z,22.60
2018-07-08T07:17:58.260Z,22.60
2018-07-08T07:20:26.504Z,22.60
2018-07-08T07:22:54.728Z,22.50
2018-07-08T07:25:23.165Z,22.30
2018-07-08T07:27:51.396Z,22.20
2018-07-08T07:30:19.681Z,22.20
2018-07-08T07:32:47.983Z,22.30
2018-07-08T07:35:16.333Z,22.40
2018-07-08T07:37:44.492Z,22.70
2018-07-08T07:40:12.700Z,22.70
2018-07-08T07:42:40.881Z,22.90
2018-07-08T07:45:09.092Z,22.80
2018-07-08T07:47:37.313Z,22.60
2018-07-08T07:50:05.582Z,22.40
2018-07-08T07:52:33.784Z,22.50
2018-07-08T07:55:01.954Z,22.40
2018-07-08T07:57:30.197Z,22.60
2018-07-08T07:59:58.434Z,22.70
2018-07-08T08:02:26.608Z,22.90
2018-07-08T08:04:54.929Z,23.00
2018-07-08T08:07:23.366Z,23.00
2018-07-08T08:09:51.590Z,23.10
2018-07-08T08:12:19.801Z,23.10
2018-07-08T08:14:48.025Z,23.00
2018-07-08T08:17:16.249Z,23.00
2018-07-08T08:19:44.421Z,22.80
2018-07-08T08:22:12.629Z,22.80
2018-07-08T08:24:40.793Z,23.00
2018-07-08T08:27:08.997Z,23.10
2018-07-08T08:29:37.216Z,23.20
2018-07-08T08:32:05.524Z,23.40
2018-07-08T08:34:53.000Z,23.50
2018-07-08T08:37:22.671Z,23.70
2018-07-08T08:39:51.793Z,23.90
2018-07-08T08:42:20.033Z,23.90
2018-07-08T08:44:49.160Z,24.00
2018-07-08T08:47:18.105Z,24.30
2018-07-08T08:49:47.381Z,24.50
2018-07-08T08:52:15.605Z,24.80
2018-07-08T08:54:43.804Z,25.10
2018-07-08T08:57:12.337Z,25.00
2018-07-08T08:59:40.541Z,24.90
2018-07-08T09:02:09.129Z,24.70
2018-07-08T09:04:38.209Z,24.80
2018-07-08T09:07:06.976Z,24.80
2018-07-08T09:09:35.333Z,24.90
2018-07-08T09:12:03.559Z,24.70
2018-07-08T09:14:31.780Z,24.40
2018-07-08T09:16:59.981Z,24.50
2018-07-08T09:19:28.188Z,24.50
2018-07-08T09:21:56.381Z,24.60
2018-07-08T09:24:25.517Z,24.80
2018-07-08T09:26:53.733Z,24.50
2018-07-08T09:29:22.353Z,24.40
2018-07-08T09:31:50.597Z,24.40
2018-07-08T09:34:18.792Z,24.30
2018-07-08T09:36:46.990Z,24.10
2018-07-08T09:39:15.892Z,24.30
2018-07-08T09:41:44.629Z,24.30
2018-07-08T09:44:13.849Z,24.30
2018-07-08T09:46:43.217Z,24.40
2018-07-08T09:49:11.753Z,24.40
2018-07-08T09:54:08.054Z,24.70
2018-07-08T09:56:36.275Z,25.00
2018-07-08T09:59:04.653Z,25.30
2018-07-08T10:01:38.529Z,25.30
2018-07-08T10:04:07.296Z,25.10
2018-07-08T10:06:35.566Z,25.10
2018-07-08T10:09:04.819Z,25.10
2018-07-08T10:11:33.041Z,25.00
2018-07-08T10:14:01.300Z,25.20
2018-07-08T10:16:29.527Z,25.40
2018-07-08T10:18:57.708Z,25.40
2018-07-08T10:21:25.996Z,25.20
2018-07-08T10:23:54.202Z,25.20
2018-07-08T10:26:22.396Z,25.40
2018-07-08T10:28:50.601Z,25.30
2018-07-08T10:31:28.892Z,25.20
2018-07-08T10:33:57.941Z,25.40
2018-07-08T10:36:26.176Z,25.70
2018-07-08T10:38:54.409Z,25.70
2018-07-08T10:41:22.590Z,25.60
2018-07-08T10:43:50.796Z,25.40
2018-07-08T10:46:19.001Z,25.40
2018-07-08T10:48:47.201Z,25.50
2018-07-08T10:51:15.437Z,25.80
2018-07-08T10:53:43.669Z,25.90
2018-07-08T10:56:11.881Z,25.90
2018-07-08T10:58:40.107Z,25.90
2018-07-08T11:01:08.357Z,26.10
2018-07-08T11:03:36.572Z,26.20
2018-07-08T11:06:04.835Z,26.20
2018-07-08T11:08:33.033Z,26.40
2018-07-08T11:11:01.309Z,26.30
2018-07-08T11:13:30.009Z,26.10
2018-07-08T11:15:58.565Z,25.90
2018-07-08T11:18:27.145Z,25.60
2018-07-08T11:20:55.605Z,25.50
2018-07-08T11:23:23.782Z,25.60
2018-07-08T11:25:52.832Z,26.00
2018-07-08T11:28:21.080Z,26.30
2018-07-08T11:30:49.561Z,26.30
2018-07-08T11:33:18.022Z,26.30
2018-07-08T11:35:46.366Z,26.10
2018-07-08T11:38:14.616Z,26.30
2018-07-08T11:40:42.847Z,26.20
2018-07-08T11:43:11.042Z,26.30
2018-07-08T11:45:39.256Z,26.40
2018-07-08T11:48:07.476Z,26.60
2018-07-08T11:50:35.649Z,26.50
2018-07-08T11:53:04.014Z,26.30
2018-07-08T11:55:32.260Z,26.40
2018-07-08T11:58:00.464Z,26.50
2018-07-08T12:00:28.696Z,26.60
2018-07-08T12:02:56.890Z,26.30
2018-07-08T12:05:25.129Z,26.50
2018-07-08T12:07:53.380Z,26.50
2018-07-08T12:10:21.597Z,26.60
2018-07-08T12:12:49.821Z,26.40
2018-07-08T12:15:17.996Z,26.20
2018-07-08T12:17:46.211Z,26.00
2018-07-08T12:20:14.461Z,25.90
2018-07-08T12:22:42.681Z,25.70
2018-07-08T12:25:10.946Z,26.00
2018-07-08T12:27:39.206Z,26.50
2018-07-08T12:30:07.454Z,26.40
2018-07-08T12:32:35.736Z,26.30
2018-07-08T12:35:03.968Z,26.00
2018-07-08T12:37:32.249Z,26.10
2018-07-08T12:40:00.481Z,25.90
2018-07-08T12:42:28.713Z,25.50
2018-07-08T12:44:56.969Z,25.20
2018-07-08T12:47:25.168Z,25.10
2018-07-08T12:49:53.387Z,25.40
2018-07-08T12:52:21.615Z,25.50
2018-07-08T12:54:49.935Z,25.60
2018-07-08T12:57:18.121Z,25.50
2018-07-08T12:59:46.342Z,25.60
2018-07-08T13:02:14.629Z,25.70
2018-07-08T13:04:42.882Z,25.70
2018-07-08T13:07:11.106Z,25.70
2018-07-08T13:09:39.363Z,25.70
2018-07-08T13:12:07.579Z,25.70
2018-07-08T13:14:35.777Z,25.90
2018-07-08T13:17:04.017Z,26.00
2018-07-08T13:19:32.337Z,26.00
2018-07-08T13:22:00.596Z,26.00
2018-07-08T13:24:28.951Z,26.30
2018-07-08T13:26:58.683Z,26.20
2018-07-08T13:29:27.406Z,26.00
2018-07-08T13:31:56.248Z,25.90
2018-07-08T13:34:24.929Z,26.00
2018-07-08T13:36:53.623Z,26.30
2018-07-08T13:39:22.297Z,26.60
2018-07-08T13:41:51.016Z,27.10
2018-07-08T13:44:19.738Z,27.40
2018-07-08T13:46:48.402Z,27.10
2018-07-08T13:49:17.144Z,27.00
2018-07-08T13:51:45.754Z,27.10
2018-07-08T13:54:14.425Z,27.00
2018-07-08T13:56:43.026Z,26.90
2018-07-08T13:59:11.218Z,26.90
2018-07-08T14:01:39.425Z,27.00
2018-07-08T14:04:07.644Z,27.00
2018-07-08T14:06:35.857Z,27.00
2018-07-08T14:09:04.896Z,26.90
2018-07-08T14:11:33.174Z,26.90
2018-07-08T14:14:01.372Z,27.10
2018-07-08T14:16:29.580Z,27.20
2018-07-08T14:19:00.918Z,27.00
2018-07-08T14:21:29.095Z,26.90
2018-07-08T14:23:57.345Z,27.10
2018-07-08T14:26:25.770Z,27.20
2018-07-08T14:28:53.961Z,27.20
2018-07-08T14:31:22.175Z,27.10
2018-07-08T14:33:50.636Z,27.00
2018-07-08T14:36:19.073Z,27.00
2018-07-08T14:41:15.258Z,26.80
2018-07-08T14:43:43.495Z,26.70
2018-07-08T14:46:11.716Z,26.80
2018-07-08T14:48:40.086Z,26.70
2018-07-08T14:51:08.590Z,26.90
2018-07-08T14:53:36.848Z,27.00
2018-07-08T14:56:05.191Z,27.00
2018-07-08T14:58:33.509Z,27.10
2018-07-08T15:01:01.727Z,27.00
2018-07-08T15:03:29.926Z,26.70
2018-07-08T15:05:58.224Z,26.60
2018-07-08T15:08:26.457Z,26.50
2018-07-08T15:10:54.769Z,26.60
2018-07-08T15:13:23.068Z,26.60
2018-07-08T15:15:51.449Z,26.50
2018-07-08T15:18:19.769Z,26.60
2018-07-08T15:20:48.025Z,26.30
2018-07-08T15:23:16.229Z,26.20
2018-07-08T15:25:44.505Z,26.00
2018-07-08T15:28:12.700Z,25.70
2018-07-08T15:30:40.905Z,25.80
2018-07-08T15:33:09.269Z,25.80
2018-07-08T15:35:37.585Z,25.90
2018-07-08T15:38:05.841Z,25.90
2018-07-08T15:40:34.009Z,26.00
2018-07-08T15:43:02.259Z,25.70
2018-07-08T15:45:30.498Z,25.60
2018-07-08T15:47:58.698Z,25.60
2018-07-08T15:50:26.947Z,25.70
2018-07-08T15:52:55.146Z,25.80
2018-07-08T15:55:23.352Z,25.80
2018-07-08T16:00:20.225Z,25.40
2018-07-08T16:02:48.732Z,25.40
2018-07-08T16:05:16.900Z,25.30
2018-07-08T16:07:45.115Z,25.20
2018-07-08T16:10:13.325Z,25.10
2018-07-08T16:12:41.485Z,25.00
2018-07-08T16:15:09.829Z,24.90
2018-07-08T16:17:38.048Z,24.80
2018-07-08T16:20:06.295Z,24.80
2018-07-08T16:22:34.501Z,24.80
2018-07-08T16:25:02.791Z,24.90
2018-07-08T16:27:31.572Z,24.90
2018-07-08T16:30:00.054Z,24.80
2018-07-08T16:32:28.339Z,24.70
2018-07-08T16:34:56.888Z,24.80
2018-07-08T16:37:25.236Z,24.90
2018-07-08T16:39:54.286Z,24.80
2018-07-08T16:42:22.577Z,24.80
2018-07-08T16:44:50.785Z,24.70
2018-07-08T16:47:18.989Z,24.80
2018-07-08T16:49:47.293Z,24.80
2018-07-08T16:52:15.552Z,25.00
2018-07-08T16:54:43.820Z,24.90
2018-07-08T16:57:12.020Z,25.00
2018-07-08T16:59:40.257Z,25.10
2018-07-08T17:02:08.917Z,25.10
2018-07-08T17:04:37.541Z,25.00
2018-07-08T17:07:05.959Z,24.80
2018-07-08T17:09:34.237Z,24.80
2018-07-08T17:12:02.621Z,24.80
2018-07-08T17:14:31.038Z,24.80
2018-07-08T17:16:59.197Z,24.70
2018-07-08T17:19:27.439Z,24.70
2018-07-08T17:21:56.105Z,24.60
2018-07-08T17:24:24.284Z,24.60
2018-07-08T17:26:52.876Z,24.50
2018-07-08T17:29:21.065Z,24.50
2018-07-08T17:31:49.768Z,24.50
2018-07-08T17:34:17.992Z,24.50
2018-07-08T17:36:46.177Z,24.60
2018-07-08T17:39:14.416Z,24.60
2018-07-08T17:41:42.772Z,24.40
2018-07-08T17:44:11.025Z,24.20
2018-07-08T17:46:39.207Z,24.30
2018-07-08T17:49:07.429Z,24.10
2018-07-08T17:51:35.611Z,24.20
2018-07-08T17:54:03.937Z,24.20
2018-07-08T17:56:32.204Z,24.20
2018-07-08T17:59:00.453Z,24.10
2018-07-08T18:01:28.722Z,24.10
2018-07-08T18:03:56.920Z,24.00
2018-07-08T18:06:25.091Z,24.00
2018-07-08T18:08:53.446Z,23.90
2018-07-08T18:11:21.637Z,23.90
2018-07-08T18:13:50.301Z,23.80
2018-07-08T18:16:18.941Z,23.70
2018-07-08T18:18:48.240Z,23.60
2018-07-08T18:21:16.786Z,23.50
2018-07-08T18:23:44.994Z,23.50
2018-07-08T18:26:13.214Z,23.40
2018-07-08T18:28:41.566Z,23.30
2018-07-08T18:31:09.825Z,23.30
2018-07-08T18:33:38.015Z,23.20
2018-07-08T18:36:06.405Z,23.10
2018-07-08T18:38:34.642Z,23.00
2018-07-08T18:41:03.860Z,22.90
2018-07-08T18:43:32.241Z,22.80
2018-07-08T18:46:00.662Z,22.70
2018-07-08T18:48:28.957Z,22.60
2018-07-08T18:50:57.201Z,22.60
2018-07-08T18:53:25.575Z,22.50
2018-07-08T18:55:55.335Z,22.40
2018-07-08T18:58:24.380Z,22.40
2018-07-08T19:00:52.940Z,22.10
2018-07-08T19:03:21.430Z,22.10
2018-07-08T19:05:49.639Z,21.90
2018-07-08T19:08:17.933Z,21.90
2018-07-08T19:10:46.396Z,21.80
2018-07-08T19:13:14.701Z,21.70
2018-07-08T19:15:43.086Z,21.70
2018-07-08T19:18:11.361Z,21.70
2018-07-08T19:20:39.633Z,21.60
2018-07-08T19:23:07.912Z,21.50
2018-07-08T19:25:36.240Z,21.50
2018-07-08T19:28:04.684Z,21.50
2018-07-08T19:30:32.901Z,21.40
2018-07-08T19:33:01.110Z,21.30
2018-07-08T19:35:29.748Z,21.10
2018-07-08T19:37:59.044Z,21.00
2018-07-08T19:40:27.377Z,20.80
2018-07-08T19:42:55.753Z,20.70
2018-07-08T19:45:24.276Z,20.60
2018-07-08T19:50:20.798Z,20.50
2018-07-08T19:52:49.012Z,20.50
2018-07-08T19:55:17.202Z,20.30
2018-07-08T19:57:45.393Z,20.30
2018-07-08T20:02:41.613Z,20.30
2018-07-08T20:05:09.880Z,20.30
2018-07-08T20:07:38.175Z,20.20
2018-07-08T20:10:06.594Z,20.10
2018-07-08T20:12:34.909Z,20.00
2018-07-08T20:15:03.513Z,20.00
2018-07-08T20:17:32.751Z,20.10
2018-07-08T20:20:00.925Z,20.10
2018-07-08T20:22:29.201Z,20.20
2018-07-08T20:27:25.535Z,19.90
2018-07-08T20:29:54.696Z,19.80
2018-07-08T20:32:23.269Z,19.80
2018-07-08T20:34:51.993Z,19.80
2018-07-08T20:37:20.404Z,19.90
2018-07-08T20:39:49.640Z,19.80
2018-07-08T20:42:18.639Z,19.60
2018-07-08T20:44:47.984Z,19.60
2018-07-08T20:47:16.820Z,19.60
2018-07-08T20:49:45.674Z,19.60
2018-07-08T20:52:13.982Z,19.60
2018-07-08T20:54:42.196Z,19.60
2018-07-08T20:57:10.440Z,19.60
2018-07-08T20:59:38.628Z,19.60
2018-07-08T21:02:06.845Z,19.60
2018-07-08T21:04:35.629Z,19.40
2018-07-08T21:09:32.177Z,19.30
2018-07-08T21:12:00.477Z,19.30
2018-07-08T21:14:28.784Z,19.30
2018-07-08T21:19:25.050Z,19.10
2018-07-08T21:21:53.241Z,19.10
2018-07-08T21:24:21.449Z,19.00
2018-07-08T21:26:49.636Z,19.00
2018-07-08T21:29:17.913Z,19.00
2018-07-08T21:31:46.184Z,19.00
2018-07-08T21:34:14.478Z,19.00
2018-07-08T21:36:42.679Z,18.90
2018-07-08T21:39:11.466Z,18.80
2018-07-08T21:41:40.641Z,18.80
2018-07-08T21:44:09.065Z,18.90
2018-07-08T21:46:37.339Z,18.90
2018-07-08T21:49:06.269Z,18.90
2018-07-08T21:51:35.280Z,18.80
2018-07-08T21:54:04.126Z,18.70
2018-07-08T21:56:32.844Z,18.50
2018-07-08T21:59:01.393Z,18.50
2018-07-08T22:01:32.383Z,18.20
2018-07-08T22:04:01.066Z,18.30
2018-07-08T22:06:30.004Z,18.30
2018-07-08T22:08:58.718Z,18.20
2018-07-08T22:11:27.399Z,18.20
2018-07-08T22:13:56.070Z,18.10
2018-07-08T22:16:24.905Z,18.10
2018-07-08T22:18:53.647Z,17.90
2018-07-08T22:21:22.379Z,17.80
2018-07-08T22:23:50.625Z,17.70
2018-07-08T22:26:18.857Z,17.80
2018-07-08T22:28:47.022Z,17.70
2018-07-08T22:31:15.246Z,17.80
2018-07-08T22:33:43.473Z,17.90
2018-07-08T22:36:11.640Z,18.00
2018-07-08T22:38:39.873Z,18.10
2018-07-08T22:41:08.089Z,18.10
2018-07-08T22:43:36.340Z,18.10
2018-07-08T22:46:04.686Z,18.10
2018-07-08T22:48:33.007Z,18.10
2018-07-08T22:51:01.289Z,18.10
2018-07-08T22:53:29.613Z,18.10
2018-07-08T22:55:57.897Z,18.10
2018-07-08T22:58:26.151Z,18.00
2018-07-08T23:01:05.361Z,18.00
2018-07-08T23:04:04.241Z,17.90
2018-07-08T23:06:32.647Z,17.70
2018-07-08T23:09:00.852Z,17.50
2018-07-08T23:11:29.429Z,17.40
2018-07-08T23:13:58.301Z,17.40
2018-07-08T23:16:27.016Z,17.40
2018-07-08T23:18:55.221Z,17.40
2018-07-08T23:21:23.412Z,17.30
2018-07-08T23:23:51.629Z,17.40
2018-07-08T23:26:19.838Z,17.30
2018-07-08T23:28:48.097Z,17.20
2018-07-08T23:31:16.289Z,17.20
2018-07-08T23:33:44.569Z,17.10
2018-07-08T23:36:13.018Z,17.10
2018-07-08T23:38:41.213Z,17.10
2018-07-08T23:41:10.613Z,17.10
2018-07-08T23:43:38.836Z,17.10
2018-07-08T23:46:07.124Z,17.00
2018-07-08T23:48:35.549Z,17.10
2018-07-08T23:51:03.795Z,17.10
2018-07-08T23:53:32.040Z,17.10
2018-07-08T23:56:00.212Z,17.10
2018-07-08T23:58:28.464Z,17.00
